Time;durP1;ratioP1;P1;durP2;ratioP2;P2;SDS_P1;SDS_P2;PMS_P1;PMS_P2;Temp;Humidity;BMP_temperature;BMP_pressure;BME280_temperature;BME280_humidity;BME280_pressure;Samples;Min_cycle;Max_cycle;Signal;HPM_P1;HPM_P2
2022/05/12 00:02:07;;;;;;;4.70;2.83;;;;;;;17.59;nan;100233.81;5036213;28;20042;-83
2022/05/12 00:04:34;;;;;;;4.60;2.97;;;;;;;17.54;nan;100244.31;5035733;28;20499;-82
2022/05/12 00:06:59;;;;;;;3.42;2.50;;;;;;;17.51;nan;100249.22;5036024;28;20095;-82
2022/05/12 00:09:25;;;;;;;4.22;2.80;;;;;;;17.50;nan;100255.63;5042535;28;20064;-82
2022/05/12 00:11:51;;;;;;;3.10;2.30;;;;;;;17.45;nan;100248.19;5033246;28;20133;-82
2022/05/12 00:14:16;;;;;;;5.82;3.08;;;;;;;17.49;nan;100251.28;5040880;28;20512;-82
2022/05/12 00:16:42;;;;;;;3.92;3.00;;;;;;;17.52;nan;100258.88;5043563;28;20120;-80
2022/05/12 00:19:07;;;;;;;5.30;3.22;;;;;;;17.51;nan;100260.72;5037846;28;20052;-83
2022/05/12 00:21:33;;;;;;;4.35;3.38;;;;;;;17.47;nan;100261.34;5034443;28;20049;-83
2022/05/12 00:23:59;;;;;;;4.20;2.92;;;;;;;17.44;nan;100265.25;5017980;28;20114;-83
2022/05/12 00:26:30;;;;;;;2.70;2.37;;;;;;;17.55;nan;100266.50;5027292;28;20415;-83
2022/05/12 00:28:59;;;;;;;;;;;;;;;17.52;nan;100262.41;5034474;28;20037;-83
2022/05/12 00:31:25;;;;;;;;;;;;;;;17.57;nan;100267.94;5018393;28;19917;-82
2022/05/12 00:33:51;;;;;;;3.35;2.40;;;;;;;17.61;nan;100268.34;5017188;28;19917;-82
2022/05/12 00:36:16;;;;;;;;;;;;;;;17.62;nan;100270.84;5034950;28;20036;-83
2022/05/12 00:38:42;;;;;;;5.25;2.88;;;;;;;17.70;nan;100277.00;5037481;28;19931;-82
2022/05/12 00:41:08;;;;;;;4.75;3.00;;;;;;;17.71;nan;100275.97;5035399;28;20037;-82
2022/05/12 00:44:05;;;;;;;;;;;;;;;17.69;nan;100283.41;5034022;28;20033;-82
2022/05/12 00:46:31;;;;;;;;;;;;;;;17.65;nan;100282.16;5023692;28;20095;-82
2022/05/12 00:49:05;;;;;;;3.25;2.55;;;;;;;17.62;nan;100289.56;5031401;28;19962;-82
2022/05/12 00:51:40;;;;;;;4.05;2.92;;;;;;;17.61;nan;100287.91;5032109;28;20029;-82
2022/05/12 00:54:15;;;;;;;4.28;3.08;;;;;;;17.67;nan;100285.44;5037720;28;20048;-82
2022/05/12 00:56:41;;;;;;;5.40;3.17;;;;;;;17.73;nan;100288.13;5022340;28;20095;-83
2022/05/12 00:59:12;;;;;;;4.13;3.40;;;;;;;17.79;nan;100294.50;5036618;28;20030;-83
2022/05/12 01:01:39;;;;;;;3.47;2.80;;;;;;;17.82;nan;100297.63;5047325;28;20033;-82
2022/05/12 01:04:05;;;;;;;3.60;2.90;;;;;;;17.88;nan;100303.19;5035780;28;20037;-83
2022/05/12 01:06:30;;;;;;;4.05;2.60;;;;;;;17.93;nan;100301.53;5018600;28;20036;-82
2022/05/12 01:08:55;;;;;;;3.03;2.38;;;;;;;17.96;nan;100298.44;5036736;28;20025;-82
2022/05/12 01:11:21;;;;;;;5.40;2.42;;;;;;;18.02;nan;100303.00;5033888;28;20041;-82
2022/05/12 01:14:01;;;;;;;4.93;2.72;;;;;;;18.06;nan;100302.56;5023608;28;20532;-82
2022/05/12 01:16:39;;;;;;;4.50;2.63;;;;;;;18.08;nan;100312.03;5020580;28;20115;-82
2022/05/12 01:19:06;;;;;;;3.58;2.22;;;;;;;18.12;nan;100307.91;5039905;28;20033;-82
2022/05/12 01:21:33;;;;;;;3.42;2.10;;;;;;;18.10;nan;100306.47;5045292;28;20030;-83
2022/05/12 01:24:00;;;;;;;3.05;2.00;;;;;;;18.12;nan;100309.78;5043698;28;20085;-82
2022/05/12 01:26:26;;;;;;;3.63;2.20;;;;;;;18.11;nan;100313.47;5008870;28;20041;-81
2022/05/12 01:28:51;;;;;;;2.33;1.80;;;;;;;18.13;nan;100322.13;5020526;28;20043;-81
2022/05/12 01:31:20;;;;;;;2.78;2.00;;;;;;;18.16;nan;100322.53;5039949;28;20040;-82
2022/05/12 01:33:45;;;;;;;3.65;2.13;;;;;;;18.17;nan;100329.53;5035362;28;20039;-82
2022/05/12 01:36:10;;;;;;;2.95;1.70;;;;;;;18.20;nan;100333.63;5019586;28;20045;-81
2022/05/12 01:38:36;;;;;;;3.85;2.30;;;;;;;18.19;nan;100332.81;5034026;28;20049;-82
2022/05/12 01:41:01;;;;;;;2.38;1.75;;;;;;;18.24;nan;100332.22;5046768;28;20060;-82
2022/05/12 01:43:26;;;;;;;3.50;1.70;;;;;;;18.24;nan;100335.69;5052255;28;20064;-81
2022/05/12 01:45:52;;;;;;;5.57;2.20;;;;;;;18.24;nan;100341.06;5041100;28;20089;-81
2022/05/12 01:48:18;;;;;;;2.65;2.10;;;;;;;18.28;nan;100336.09;5046145;28;20041;-82
2022/05/12 01:50:45;;;;;;;2.35;1.70;;;;;;;18.28;nan;100344.13;5033938;28;20107;-82
2022/05/12 01:53:11;;;;;;;2.33;1.50;;;;;;;18.29;nan;100340.44;5041855;28;20034;-83
2022/05/12 01:55:38;;;;;;;1.90;1.50;;;;;;;18.31;nan;100354.44;5049262;28;20021;-83
2022/05/12 01:58:04;;;;;;;2.17;1.45;;;;;;;18.33;nan;100355.06;5057335;28;20128;-83
2022/05/12 02:00:30;;;;;;;1.70;1.33;;;;;;;18.34;nan;100363.91;5046653;28;20037;-82
2022/05/12 02:03:00;;;;;;;2.53;1.50;;;;;;;18.34;nan;100363.91;5035262;28;20045;-82
2022/05/12 02:05:30;;;;;;;2.75;1.70;;;;;;;18.32;nan;100358.75;5024873;28;20041;-82
2022/05/12 02:07:56;;;;;;;2.33;1.60;;;;;;;18.31;nan;100364.34;5041402;28;20101;-83
2022/05/12 02:10:26;;;;;;;2.72;1.63;;;;;;;18.23;nan;100374.22;5048419;28;20391;-82
2022/05/12 02:12:51;;;;;;;2.13;1.60;;;;;;;18.14;nan;100378.13;5044680;28;20518;-82
2022/05/12 02:15:17;;;;;;;3.05;1.90;;;;;;;18.04;nan;100373.19;5053875;28;20041;-82
2022/05/12 02:17:43;;;;;;;2.50;1.70;;;;;;;17.97;nan;100380.38;5046514;28;20044;-82
2022/05/12 02:20:10;;;;;;;2.20;1.65;;;;;;;17.88;nan;100378.91;5030775;28;20041;-82
2022/05/12 02:22:36;;;;;;;3.38;1.70;;;;;;;17.77;nan;100380.28;5042169;28;20037;-83
2022/05/12 02:25:03;;;;;;;2.85;1.65;;;;;;;17.72;nan;100384.59;5040786;28;20063;-82
2022/05/12 02:27:28;;;;;;;2.88;2.08;;;;;;;17.67;nan;100384.38;5039170;28;20029;-81
2022/05/12 02:29:53;;;;;;;2.58;1.90;;;;;;;17.65;nan;100389.13;5024541;28;20040;-82
2022/05/12 02:32:18;;;;;;;2.53;1.53;;;;;;;17.72;nan;100387.28;5043250;28;20424;-81
2022/05/12 02:34:44;;;;;;;4.30;1.85;;;;;;;17.60;nan;100393.19;5034592;28;20391;-82
2022/05/12 02:37:09;;;;;;;1.63;1.30;;;;;;;17.71;nan;100396.31;5035786;28;20415;-82
2022/05/12 02:39:38;;;;;;;1.92;1.30;;;;;;;17.61;nan;100402.88;5056874;28;20193;-82
2022/05/12 02:42:06;;;;;;;3.58;1.70;;;;;;;17.57;nan;100408.84;5050462;28;20064;-82
2022/05/12 02:44:31;;;;;;;5.88;1.90;;;;;;;17.46;nan;100407.56;5044971;28;20415;-82
2022/05/12 02:46:57;;;;;;;3.28;1.90;;;;;;;17.46;nan;100410.22;5058917;28;20117;-82
2022/05/12 02:49:22;;;;;;;2.67;1.85;;;;;;;17.39;nan;100418.22;5038105;28;20311;-81
2022/05/12 02:51:48;;;;;;;2.60;1.80;;;;;;;17.34;nan;100423.34;5023107;28;20423;-82
2022/05/12 02:54:17;;;;;;;2.13;1.63;;;;;;;17.27;nan;100421.66;5047601;28;20049;-81
2022/05/12 02:56:43;;;;;;;3.03;1.38;;;;;;;17.16;nan;100426.56;5039927;28;20510;-81
2022/05/12 02:59:09;;;;;;;2.10;1.40;;;;;;;17.10;nan;100429.19;5048372;28;20037;-83
2022/05/12 03:01:35;;;;;;;2.50;1.50;;;;;;;17.03;nan;100430.97;5040213;28;20041;-81
2022/05/12 03:04:01;;;;;;;2.20;1.50;;;;;;;16.97;nan;100427.22;5024795;28;20163;-81
2022/05/12 03:06:27;;;;;;;3.63;1.67;;;;;;;16.91;nan;100428.84;5026078;28;20280;-82
2022/05/12 03:08:53;;;;;;;2.20;1.40;;;;;;;16.85;nan;100429.66;5041381;28;20041;-81
2022/05/12 03:11:18;;;;;;;3.25;1.23;;;;;;;16.77;nan;100430.56;5022202;28;20041;-81
2022/05/12 03:13:43;;;;;;;2.17;1.25;;;;;;;16.69;nan;100445.94;5040312;28;20057;-82
2022/05/12 03:16:10;;;;;;;2.65;1.25;;;;;;;16.63;nan;100444.84;5046134;28;20029;-81
2022/05/12 03:18:37;;;;;;;3.15;1.63;;;;;;;16.58;nan;100444.59;5029405;28;20036;-82
2022/05/12 03:21:03;;;;;;;2.15;1.30;;;;;;;16.54;nan;100454.00;5045619;28;20049;-83
2022/05/12 03:23:28;;;;;;;3.20;1.48;;;;;;;16.51;nan;100451.72;5025773;28;20049;-83
2022/05/12 03:25:54;;;;;;;2.47;1.60;;;;;;;16.46;nan;100451.47;5047304;28;20025;-83
2022/05/12 03:28:21;;;;;;;2.45;1.50;;;;;;;16.61;nan;100451.41;5039980;28;20414;-82
2022/05/12 03:30:47;;;;;;;1.90;1.40;;;;;;;16.70;nan;100451.06;5039278;28;20479;-82
2022/05/12 03:33:13;;;;;;;4.45;1.80;;;;;;;16.66;nan;100457.81;5023555;28;20034;-82
2022/05/12 03:35:39;;;;;;;3.03;1.50;;;;;;;16.63;nan;100468.06;5046657;28;20055;-82
2022/05/12 03:38:05;;;;;;;2.78;1.65;;;;;;;16.56;nan;100474.19;5046726;28;20063;-82
2022/05/12 03:40:30;;;;;;;3.22;1.52;;;;;;;16.53;nan;100476.38;5017342;28;20044;-82
2022/05/12 03:42:58;;;;;;;2.85;1.40;;;;;;;16.47;nan;100469.13;5045021;28;20396;-82
2022/05/12 03:45:25;;;;;;;2.60;1.67;;;;;;;16.46;nan;100476.31;5049762;28;20045;-82
2022/05/12 03:47:50;;;;;;;3.88;1.88;;;;;;;16.43;nan;100486.56;5036722;28;20030;-82
2022/05/12 03:50:21;;;;;;;2.08;1.33;;;;;;;16.39;nan;100483.44;5026479;28;20509;-82
2022/05/12 03:52:48;;;;;;;;;;;;;;;16.32;nan;100491.38;5045035;28;20522;-81
2022/05/12 03:55:16;;;;;;;2.05;1.42;;;;;;;16.29;nan;100498.94;5019089;28;19924;-81
2022/05/12 03:57:44;;;;;;;1.80;1.20;;;;;;;16.26;nan;100508.16;5038040;28;20101;-81
2022/05/12 04:00:13;;;;;;;3.30;1.35;;;;;;;16.24;nan;100515.53;5042725;28;20132;-81
2022/05/12 04:02:38;;;;;;;1.73;1.30;;;;;;;16.26;nan;100516.16;5041385;28;20083;-81
2022/05/12 04:05:07;;;;;;;;;;;;;;;16.26;nan;100518.03;5039589;28;20038;-81
2022/05/12 04:07:49;;;;;;;3.30;1.60;;;;;;;16.29;nan;100517.63;5029183;28;19924;-81
2022/05/12 04:10:51;;;;;;;2.65;1.50;;;;;;;16.32;nan;100525.25;5039674;28;20037;-81
2022/05/12 04:13:16;;;;;;;3.70;1.60;;;;;;;16.33;nan;100530.41;5015738;28;20021;-82
2022/05/12 04:15:42;;;;;;;2.28;1.50;;;;;;;16.40;nan;100542.97;5016400;28;20022;-81
2022/05/12 04:18:08;;;;;;;2.75;1.48;;;;;;;16.43;nan;100542.63;5037017;28;20025;-82
2022/05/12 04:20:35;;;;;;;2.03;1.30;;;;;;;16.46;nan;100551.06;5021780;28;20030;-81
2022/05/12 04:23:00;;;;;;;1.88;1.20;;;;;;;16.56;nan;100553.41;5024493;28;20042;-81
2022/05/12 04:25:26;;;;;;;2.60;1.45;;;;;;;16.64;nan;100560.50;5041963;28;20043;-82
2022/05/12 04:27:52;;;;;;;1.95;1.33;;;;;;;16.70;nan;100554.38;5045753;28;20029;-82
2022/05/12 04:30:21;;;;;;;1.65;1.20;;;;;;;16.77;nan;100566.75;5036415;28;20037;-81
2022/05/12 04:32:46;;;;;;;2.08;1.30;;;;;;;16.80;nan;100564.75;5030533;28;20235;-81
2022/05/12 04:35:14;;;;;;;2.30;1.45;;;;;;;16.84;nan;100571.38;5019383;28;20061;-82
2022/05/12 04:37:54;;;;;;;3.28;1.42;;;;;;;16.96;nan;100578.66;5024580;28;20037;-81
2022/05/12 04:40:25;;;;;;;2.88;1.20;;;;;;;17.07;nan;100579.19;5025519;28;20037;-81
2022/05/12 04:42:53;;;;;;;2.08;1.40;;;;;;;17.19;nan;100591.00;5035547;28;20029;-81
2022/05/12 04:45:20;;;;;;;2.30;1.40;;;;;;;17.28;nan;100589.00;5035984;28;20041;-82
2022/05/12 04:47:46;;;;;;;2.53;1.50;;;;;;;17.35;nan;100592.53;5035171;28;20037;-81
2022/05/12 04:50:17;;;;;;;3.17;1.95;;;;;;;17.45;nan;100593.03;5041647;28;20465;-81
2022/05/12 04:52:42;;;;;;;3.50;1.70;;;;;;;17.55;nan;100590.84;5040783;28;20042;-81
2022/05/12 04:55:09;;;;;;;3.88;1.45;;;;;;;17.60;nan;100590.25;5043017;28;20281;-82
2022/05/12 04:57:37;;;;;;;2.53;1.80;;;;;;;17.72;nan;100601.22;5049360;28;20059;-81
2022/05/12 05:00:04;;;;;;;2.53;1.60;;;;;;;17.79;nan;100596.75;5022910;28;20046;-82
2022/05/12 05:02:29;;;;;;;3.42;1.83;;;;;;;17.84;nan;100599.69;5034018;28;20197;-81
2022/05/12 05:04:54;;;;;;;2.15;1.40;;;;;;;17.89;nan;100610.59;5039056;28;20037;-81
2022/05/12 05:07:19;;;;;;;2.53;1.55;;;;;;;17.92;nan;100604.84;5039802;28;20486;-82
2022/05/12 05:09:45;;;;;;;2.13;1.42;;;;;;;17.96;nan;100614.13;5045712;28;20044;-82
2022/05/12 05:12:10;;;;;;;2.50;1.40;;;;;;;18.00;nan;100620.75;5020748;28;20037;-81
2022/05/12 05:14:36;;;;;;;3.10;1.40;;;;;;;18.12;nan;100621.03;5040188;28;20033;-81
2022/05/12 05:17:01;;;;;;;;;;;;;;;18.29;nan;100624.19;5025269;28;20044;-81
2022/05/12 05:19:27;;;;;;;2.40;1.60;;;;;;;18.57;nan;100625.94;5018103;28;19925;-82
2022/05/12 05:21:52;;;;;;;3.05;1.35;;;;;;;18.88;nan;100628.91;5041806;28;20545;-82
2022/05/12 05:24:18;;;;;;;2.50;1.30;;;;;;;19.34;nan;100631.81;5019042;28;20037;-82
2022/05/12 05:26:44;;;;;;;2.85;1.42;;;;;;;19.85;nan;100639.19;5032374;28;20046;-82
2022/05/12 05:29:10;;;;;;;2.30;1.30;;;;;;;20.30;nan;100640.06;5033705;28;20038;-82
2022/05/12 05:31:38;;;;;;;1.85;1.30;;;;;;;20.83;nan;100652.44;5037756;28;20029;-82
2022/05/12 05:34:03;;;;;;;2.83;1.20;;;;;;;21.29;nan;100659.38;5032725;28;20041;-81
2022/05/12 05:36:29;;;;;;;2.22;1.33;;;;;;;21.44;nan;100659.06;5039109;28;20517;-81
2022/05/12 05:38:54;;;;;;;2.47;1.10;;;;;;;21.40;nan;100663.22;5028207;28;20033;-82
2022/05/12 05:41:19;;;;;;;3.60;1.20;;;;;;;21.24;nan;100671.81;5035705;28;20048;-80
2022/05/12 05:43:45;;;;;;;3.25;1.10;;;;;;;21.21;nan;100673.06;5025787;28;20025;-82
2022/05/12 05:46:10;;;;;;;2.95;1.38;;;;;;;21.16;nan;100683.66;5020930;28;20499;-82
2022/05/12 05:48:36;;;;;;;1.33;0.87;;;;;;;21.22;nan;100682.81;5033424;28;20417;-81
2022/05/12 05:53:45;;;;;;;1.40;0.90;;;;;;;21.29;nan;100680.88;5032046;28;20992;-81
2022/05/12 05:56:15;;;;;;;3.38;1.40;;;;;;;21.01;nan;100689.34;5036532;28;20057;-81
2022/05/12 05:58:45;;;;;;;3.33;1.02;;;;;;;20.97;nan;100693.50;5032390;28;20407;-81
2022/05/12 06:01:12;;;;;;;1.70;1.00;;;;;;;20.92;nan;100690.66;5032222;28;20033;-81
2022/05/12 06:03:38;;;;;;;2.50;1.13;;;;;;;20.96;nan;100691.88;5032785;28;20112;-81
2022/05/12 06:06:04;;;;;;;2.00;1.20;;;;;;;20.97;nan;100694.34;5033098;28;20363;-81
2022/05/12 06:08:29;;;;;;;2.20;1.10;;;;;;;21.03;nan;100691.84;5030741;28;20085;-81
2022/05/12 06:10:55;;;;;;;2.25;1.10;;;;;;;21.19;nan;100696.69;5024009;28;20050;-81
2022/05/12 06:13:20;;;;;;;2.92;1.30;;;;;;;21.26;nan;100705.53;5031560;28;20045;-81
2022/05/12 06:15:46;;;;;;;2.78;0.98;;;;;;;21.24;nan;100704.06;5016565;28;20101;-80
2022/05/12 06:18:15;;;;;;;2.20;0.88;;;;;;;21.24;nan;100706.78;5034964;28;20037;-82
2022/05/12 06:20:45;;;;;;;2.47;1.20;;;;;;;21.19;nan;100708.28;5034465;28;20589;-80
2022/05/12 06:23:12;;;;;;;1.88;1.00;;;;;;;21.17;nan;100717.59;5038198;28;20590;-81
2022/05/12 06:25:38;;;;;;;1.73;1.10;;;;;;;21.17;nan;100717.59;5020035;28;20057;-81
2022/05/12 06:28:04;;;;;;;2.55;1.10;;;;;;;21.07;nan;100722.59;5017645;28;20033;-81
2022/05/12 06:30:29;;;;;;;2.17;1.23;;;;;;;20.97;nan;100721.25;5034959;28;20665;-83
2022/05/12 06:32:56;;;;;;;1.77;1.23;;;;;;;20.98;nan;100730.13;5010762;28;20030;-83
2022/05/12 06:35:23;;;;;;;1.98;0.93;;;;;;;21.02;nan;100725.13;5031033;28;20060;-82
2022/05/12 06:37:48;;;;;;;2.60;1.30;;;;;;;21.05;nan;100732.78;5030189;28;20033;-83
2022/05/12 06:40:14;;;;;;;2.85;1.23;;;;;;;21.15;nan;100728.56;5038855;28;20048;-83
2022/05/12 06:42:41;;;;;;;2.38;1.10;;;;;;;21.11;nan;100740.78;5041070;28;20041;-83
2022/05/12 06:45:08;;;;;;;2.25;1.00;;;;;;;21.19;nan;100745.09;5035129;28;20037;-84
2022/05/12 06:47:33;;;;;;;2.22;1.00;;;;;;;21.29;nan;100748.13;5034934;28;20120;-84
2022/05/12 06:50:01;;;;;;;2.15;1.10;;;;;;;21.37;nan;100747.03;5035438;28;20095;-83
2022/05/12 06:52:27;;;;;;;2.72;1.33;;;;;;;21.28;nan;100751.03;5031298;28;20037;-82
2022/05/12 06:54:52;;;;;;;2.28;1.10;;;;;;;21.28;nan;100754.53;5015995;28;20113;-82
2022/05/12 06:57:23;;;;;;;2.28;1.00;;;;;;;21.30;nan;100759.72;5033569;28;20046;-83
2022/05/12 06:59:49;;;;;;;5.13;1.20;;;;;;;21.31;nan;100766.72;5030879;28;20057;-83
2022/05/12 07:02:14;;;;;;;2.90;1.20;;;;;;;21.24;nan;100760.56;5039177;28;20292;-83
2022/05/12 07:04:40;;;;;;;2.78;1.20;;;;;;;21.30;nan;100759.72;5035090;28;20042;-83
2022/05/12 07:07:05;;;;;;;2.50;1.20;;;;;;;21.34;nan;100756.38;5040293;28;20034;-85
2022/05/12 07:09:31;;;;;;;2.13;1.25;;;;;;;21.47;nan;100766.22;5033454;28;20040;-83
2022/05/12 07:11:57;;;;;;;3.83;1.30;;;;;;;21.54;nan;100763.50;5021772;28;20034;-83
2022/05/12 07:14:24;;;;;;;2.47;1.30;;;;;;;21.58;nan;100770.09;5026186;28;20124;-82
2022/05/12 07:16:50;;;;;;;;;;;;;;;21.66;nan;100767.13;5023341;28;20098;-83
2022/05/12 07:19:15;;;;;;;2.15;1.10;;;;;;;21.79;nan;100760.84;5038276;28;19916;-82
2022/05/12 07:27:13;;;;;;;2.53;1.05;;;;;;;22.42;nan;100773.28;5035839;28;20493;-81
2022/05/12 07:29:39;;;;;;;1.85;1.00;;;;;;;22.63;nan;100770.16;5036970;28;20029;-82
2022/05/12 07:32:05;;;;;;;2.15;1.10;;;;;;;22.63;nan;100772.84;5025451;28;20099;-82
2022/05/12 07:34:31;;;;;;;2.45;1.10;;;;;;;22.73;nan;100772.31;5042087;28;20033;-82
2022/05/12 07:36:57;;;;;;;3.50;1.13;;;;;;;22.77;nan;100775.38;5039835;28;20052;-83
2022/05/12 07:39:28;;;;;;;2.50;0.90;;;;;;;22.97;nan;100775.13;5043405;28;20091;-83
2022/05/12 07:41:55;;;;;;;2.03;0.93;;;;;;;23.16;nan;100771.34;5023808;28;20034;-83
2022/05/12 07:44:22;;;;;;;1.55;0.85;;;;;;;23.26;nan;100773.50;5035866;28;20033;-82
2022/05/12 07:46:49;;;;;;;1.85;0.88;;;;;;;23.35;nan;100780.22;5027254;28;20060;-83
2022/05/12 07:49:14;;;;;;;4.15;1.10;;;;;;;23.57;nan;100787.78;5026375;28;20059;-82
2022/05/12 07:51:40;;;;;;;1.80;1.00;;;;;;;23.72;nan;100788.19;5019314;28;20045;-82
2022/05/12 07:54:05;;;;;;;1.88;0.90;;;;;;;23.88;nan;100781.28;5033124;28;20034;-82
2022/05/12 07:56:31;;;;;;;2.85;1.00;;;;;;;24.21;nan;100780.69;5040655;28;20037;-81
2022/05/12 07:58:59;;;;;;;2.72;1.05;;;;;;;24.56;nan;100782.56;5016831;28;20026;-81
2022/05/12 08:01:26;;;;;;;2.28;0.90;;;;;;;24.90;nan;100788.94;5015997;28;21109;-81
2022/05/12 08:03:52;;;;;;;2.35;1.25;;;;;;;25.08;nan;100801.47;5040527;28;20030;-81
2022/05/12 08:06:18;;;;;;;2.42;1.00;;;;;;;25.10;nan;100799.34;5039171;28;20041;-81
2022/05/12 08:08:45;;;;;;;3.22;0.93;;;;;;;25.08;nan;100803.38;5039011;28;20109;-81
2022/05/12 08:11:12;;;;;;;2.10;0.93;;;;;;;25.17;nan;100810.88;5033116;28;20113;-81
2022/05/12 08:13:39;;;;;;;2.85;0.90;;;;;;;25.27;nan;100804.03;5031378;28;20045;-81
2022/05/12 08:16:05;;;;;;;2.25;0.90;;;;;;;25.23;nan;100808.28;5034452;28;20061;-81
2022/05/12 08:18:32;;;;;;;4.35;1.00;;;;;;;24.94;nan;100809.06;5017944;28;20221;-82
2022/05/12 08:20:57;;;;;;;2.70;1.00;;;;;;;24.92;nan;100810.34;5035251;28;20052;-81
2022/05/12 08:23:22;;;;;;;2.55;0.95;;;;;;;26.02;nan;100816.41;5035051;28;20034;-80
2022/05/12 08:25:50;;;;;;;3.00;1.00;;;;;;;26.64;nan;100804.56;5040008;28;20037;-81
2022/05/12 08:28:17;;;;;;;0.95;0.63;;;;;;;27.62;nan;100823.56;5035454;28;20088;-82
2022/05/12 08:30:44;;;;;;;1.77;0.75;;;;;;;28.35;nan;100820.34;5017076;28;20071;-81
2022/05/12 08:33:10;;;;;;;3.53;1.02;;;;;;;28.76;nan;100832.25;5034600;28;20486;-82
2022/05/12 08:35:35;;;;;;;3.65;0.95;;;;;;;29.07;nan;100829.69;5038767;28;20057;-82
2022/05/12 08:38:01;;;;;;;4.05;1.10;;;;;;;29.07;nan;100824.22;5036669;28;20068;-82
2022/05/12 08:40:35;;;;;;;2.90;0.90;;;;;;;29.42;nan;100828.94;5043476;28;20060;-83
2022/05/12 08:43:09;;;;;;;2.28;0.98;;;;;;;30.12;nan;100836.59;5043509;28;20179;-83
2022/05/12 08:45:35;;;;;;;2.72;1.00;;;;;;;30.28;nan;100823.78;5040942;28;20036;-82
2022/05/12 08:48:01;;;;;;;2.25;0.82;;;;;;;30.17;nan;100830.31;5040641;28;20033;-81
2022/05/12 08:50:30;;;;;;;2.92;1.08;;;;;;;30.40;nan;100834.41;5050583;28;20595;-81
2022/05/12 08:53:01;;;;;;;2.38;1.00;;;;;;;30.65;nan;100823.41;5023671;28;20030;-82
2022/05/12 08:55:59;;;;;;;3.53;0.93;;;;;;;30.53;nan;100819.34;5039189;28;20088;-82
2022/05/12 08:58:36;;;;;;;3.50;0.95;;;;;;;31.22;nan;100825.84;5039527;28;20140;-81
2022/05/12 09:01:20;;;;;;;1.52;0.60;;;;;;;31.62;nan;100826.72;5036195;28;20037;-82
2022/05/12 09:04:10;;;;;;;1.70;0.90;;;;;;;32.22;nan;100831.94;5027939;28;20072;-82
2022/05/12 09:07:00;;;;;;;1.77;0.80;;;;;;;32.71;nan;100839.88;5026030;28;20051;-82
2022/05/12 09:09:55;;;;;;;2.72;0.88;;;;;;;32.88;nan;100833.09;5031095;28;20037;-81
2022/05/12 09:12:37;;;;;;;2.38;1.08;;;;;;;33.45;nan;100833.16;5029004;28;20045;-81
2022/05/12 09:15:21;;;;;;;2.53;0.85;;;;;;;33.89;nan;100826.41;5032834;28;20102;-82
2022/05/12 09:18:19;;;;;;;2.15;0.80;;;;;;;34.06;nan;100840.34;5037651;28;20065;-82
2022/05/12 09:20:45;;;;;;;2.28;0.75;;;;;;;33.77;nan;100829.63;5020192;28;20048;-82
2022/05/12 09:23:10;;;;;;;2.85;0.70;;;;;;;34.35;nan;100831.91;5037747;28;20047;-82
2022/05/12 09:25:42;;;;;;;2.95;0.98;;;;;;;34.51;nan;100820.59;5031702;28;20546;-83
2022/05/12 09:28:27;;;;;;;3.17;0.65;;;;;;;35.26;nan;100822.84;5032799;28;20534;-82
2022/05/12 09:30:55;;;;;;;4.38;0.82;;;;;;;34.70;nan;100820.50;5033760;28;20052;-82
2022/05/12 09:33:29;;;;;;;1.90;0.70;;;;;;;35.20;nan;100823.28;5035067;28;20473;-82
2022/05/12 09:36:00;;;;;;;2.65;0.90;;;;;;;35.69;nan;100825.13;5027258;28;20029;-83
2022/05/12 09:38:26;;;;;;;;;;;;;;;35.38;nan;100816.00;5017156;28;20132;-83
2022/05/12 09:40:54;;;;;;;1.10;0.60;;;;;;;35.94;nan;100820.06;5037740;28;19975;-83
2022/05/12 09:43:24;;;;;;;2.25;0.80;;;;;;;35.87;nan;100817.78;5020209;28;20041;-84
2022/05/12 09:46:19;;;;;;;1.88;0.85;;;;;;;35.19;nan;100819.72;5030825;28;20037;-84
2022/05/12 09:48:48;;;;;;;2.15;0.75;;;;;;;35.54;nan;100822.75;5031056;28;20025;-83
2022/05/12 09:51:25;;;;;;;3.13;1.05;;;;;;;35.25;nan;100815.69;5042702;28;20041;-83
2022/05/12 09:53:53;;;;;;;2.15;0.80;;;;;;;35.56;nan;100814.16;5034312;28;20072;-84
2022/05/12 09:56:28;;;;;;;2.58;0.90;;;;;;;36.31;nan;100813.31;5036452;28;20056;-84
2022/05/12 09:59:15;;;;;;;1.88;0.90;;;;;;;36.27;nan;100825.28;5042053;28;20113;-83
2022/05/12 10:01:55;;;;;;;3.20;0.98;;;;;;;35.74;nan;100810.44;5046995;28;20055;-84
2022/05/12 10:10:20;;;;;;;4.13;0.90;;;;;;;35.15;nan;100799.47;5037301;28;20266;-84
2022/05/12 10:13:17;;;;;;;3.10;1.08;;;;;;;35.49;nan;100793.44;5032578;28;20057;-84
2022/05/12 10:15:44;;;;;;;3.15;0.73;;;;;;;36.30;nan;100803.44;5040890;28;20096;-84
2022/05/12 10:18:16;;;;;;;2.85;1.08;;;;;;;35.82;nan;100793.16;5044143;28;20068;-84
2022/05/12 10:20:45;;;;;;;2.33;1.10;;;;;;;35.68;nan;100782.25;5018223;28;20068;-85
2022/05/12 10:23:29;;;;;;;2.97;1.00;;;;;;;36.31;nan;100784.97;5040304;28;20045;-83
2022/05/12 10:26:10;;;;;;;1.95;0.77;;;;;;;37.02;nan;100783.97;5020001;28;20048;-84
2022/05/12 10:28:49;;;;;;;3.25;0.73;;;;;;;37.19;nan;100770.22;5039213;28;20037;-84
2022/05/12 10:31:28;;;;;;;1.45;0.70;;;;;;;37.88;nan;100777.56;5031612;28;20067;-84
2022/05/12 10:34:24;;;;;;;1.45;0.60;;;;;;;38.12;nan;100776.19;5024423;28;20041;-84
2022/05/12 10:37:27;;;;;;;3.85;0.80;;;;;;;36.04;nan;100756.50;5039797;28;20045;-84
2022/05/12 10:40:14;;;;;;;1.15;0.57;;;;;;;34.21;nan;100710.31;5044319;28;20045;-83
2022/05/12 10:42:58;;;;;;;2.00;0.85;;;;;;;34.98;nan;100681.94;5041461;28;20037;-83
2022/05/12 10:45:39;;;;;;;1.65;0.90;;;;;;;36.36;nan;100691.19;5038146;28;20089;-84
2022/05/12 10:48:32;;;;;;;4.05;0.70;;;;;;;36.86;nan;100682.47;5035421;28;20397;-83
2022/05/12 10:51:02;;;;;;;;;;;;;;;37.54;nan;100679.13;5035897;28;20060;-83
2022/05/12 10:53:48;;;;;;;2.22;0.70;;;;;;;37.34;nan;100755.09;5026037;28;19921;-83
2022/05/12 10:56:34;;;;;;;3.20;1.00;;;;;;;35.32;nan;100763.03;5039676;28;20045;-83
2022/05/12 10:59:41;;;;;;;2.42;0.82;;;;;;;33.96;nan;100767.25;5045115;28;20172;-83
2022/05/12 11:02:35;;;;;;;2.45;1.00;;;;;;;36.34;nan;100756.78;5048391;28;20055;-83
2022/05/12 11:05:22;;;;;;;2.05;1.00;;;;;;;37.96;nan;100762.09;5036025;28;20174;-82
2022/05/12 11:08:25;;;;;;;3.53;1.13;;;;;;;37.73;nan;100753.25;5028428;28;20045;-83
2022/05/12 11:11:02;;;;;;;2.03;0.80;;;;;;;37.48;nan;100761.25;5037544;28;20041;-83
2022/05/12 11:14:07;;;;;;;2.47;0.80;;;;;;;34.99;nan;100762.44;5048232;28;20051;-83
2022/05/12 11:17:00;;;;;;;1.77;0.70;;;;;;;36.84;nan;100761.09;5014991;28;20041;-83
2022/05/12 11:19:27;;;;;;;2.42;1.02;;;;;;;35.94;nan;100765.84;5030727;28;20034;-83
2022/05/12 11:22:04;;;;;;;2.88;1.05;;;;;;;34.12;nan;100758.78;5036550;28;20064;-83
2022/05/12 11:24:52;;;;;;;2.67;0.80;;;;;;;33.62;nan;100759.41;5040811;28;20060;-82
2022/05/12 11:27:44;;;;;;;1.55;0.60;;;;;;;35.02;nan;100759.09;5049066;28;20030;-83
2022/05/12 11:30:23;;;;;;;2.50;0.90;;;;;;;37.09;nan;100754.00;5032254;28;20407;-83
2022/05/12 11:33:07;;;;;;;1.48;0.73;;;;;;;38.89;nan;100749.19;5040182;28;20538;-83
2022/05/12 11:35:40;;;;;;;3.75;0.80;;;;;;;39.72;nan;100753.78;5031332;28;20076;-83
2022/05/12 11:38:10;;;;;;;2.17;0.80;;;;;;;40.07;nan;100755.31;5035721;28;20041;-83
2022/05/12 11:40:40;;;;;;;2.05;0.65;;;;;;;39.55;nan;100751.22;5037706;28;20033;-84
2022/05/12 11:46:14;;;;;;;2.00;0.63;;;;;;;39.30;nan;100739.25;5023659;28;20048;-83
2022/05/12 11:48:53;;;;;;;1.33;0.60;;;;;;;39.69;nan;100748.94;5014724;28;20431;-83
2022/05/12 11:51:35;;;;;;;2.17;0.63;;;;;;;40.12;nan;100746.78;5033961;28;20415;-84
2022/05/12 11:54:05;;;;;;;3.03;0.70;;;;;;;40.39;nan;100750.81;5027104;28;20120;-84
2022/05/12 11:56:46;;;;;;;3.50;0.80;;;;;;;40.61;nan;100741.19;5034690;28;20059;-83
2022/05/12 11:59:14;;;;;;;;;;;;;;;40.54;nan;100741.78;5031548;28;20041;-83
2022/05/12 12:01:40;;;;;;;2.78;0.70;;;;;;;39.00;nan;100744.91;5016207;28;20370;-83
2022/05/12 12:04:05;;;;;;;1.47;0.70;;;;;;;38.37;nan;100731.00;5037464;28;20048;-83
2022/05/12 12:06:38;;;;;;;2.65;0.80;;;;;;;37.41;nan;100734.16;5034512;28;20029;-83
2022/05/12 12:09:25;;;;;;;3.58;0.85;;;;;;;37.65;nan;100732.81;5031429;28;20509;-84
2022/05/12 12:11:51;;;;;;;1.75;0.70;;;;;;;37.72;nan;100733.13;5038178;28;20041;-83
2022/05/12 12:14:55;;;;;;;5.78;1.10;;;;;;;35.84;nan;100735.84;5036278;28;20034;-84
2022/05/12 12:17:36;;;;;;;1.52;0.63;;;;;;;35.25;nan;100733.22;5034832;28;20041;-83